PWSweather.com
Personal Weather Stations
Station Observations

SkegnessGB

Lat: 53.147585, Lon: 0.345774

Elevation: 18

Station Type: Fine Offset WH3080

http://www.skegnessweather.info/

High Low Average
Temperature 42.6°F5.9°C 39.7°F4.3°C 40.8°F4.9°C
Dew Point 41.1°F5.1°C 37.0°F2.8°C 38.9°F3.8°C
Winds 9.0 mph 14.5 kmh 1.3 mph 2.1 kmh 5.0 mph SW8.0 kmh SW
Wind Gusts 16.0 mph25.7 kmh 2.5 mph4.0 kmh 7.0 mph11.3 kmh
Humidity 100% 87% 93%
Pressure 29.37 in994.6 mb 29.21 in989.2 mb -
Precipitation 0.04 in1.0 mm - -
Hour Temp Dew Point Humidity Winds Wind Gusts Pressure Precip Precip Rate Daily Precip Total
12:00 AM 40.5°F4.7°C 38.0°F3.3°C 91% 5.2 mph SE8.4 kmh SE 8.4 mph13.5 kmh 29.37 in994.6 mb 0.00 in0.0 mm 0.00 in0.0 mm 0.00 in0.0 mm
12:10 AM 40.3°F4.6°C 37.9°F3.3°C 91% 4.9 mph WSW7.9 kmh WSW 8.4 mph13.5 kmh 29.35 in993.9 mb 0.00 in0.0 mm 0.00 in0.0 mm 0.00 in0.0 mm
12:20 AM 40.5°F4.7°C 38.0°F3.3°C 91% 5.9 mph NNE9.5 kmh NNE 10.1 mph16.3 kmh 29.35 in993.9 mb 0.00 in0.0 mm 0.00 in0.0 mm 0.00 in0.0 mm
12:30 AM 40.5°F4.7°C 38.0°F3.3°C 91% 5.8 mph WNW9.3 kmh WNW 5.9 mph9.5 kmh 29.34 in993.6 mb 0.00 in0.0 mm 0.00 in0.0 mm 0.00 in0.0 mm
12:40 AM 40.5°F4.7°C 37.8°F3.2°C 90% 5.4 mph N8.7 kmh N 7.6 mph12.2 kmh 29.34 in993.6 mb 0.00 in0.0 mm 0.00 in0.0 mm 0.00 in0.0 mm
12:50 AM 40.6°F4.8°C 37.7°F3.2°C 89% 7.1 mph NNW11.4 kmh NNW 15.0 mph24.1 kmh 29.33 in993.2 mb 0.00 in0.0 mm 0.00 in0.0 mm 0.00 in0.0 mm
01:00 AM 40.6°F4.8°C 37.7°F3.2°C 89% 6.2 mph N10.0 kmh N 15.0 mph24.1 kmh 29.33 in993.2 mb 0.00 in0.0 mm 0.00 in0.0 mm 0.00 in0.0 mm
01:10 AM 40.6°F4.8°C 37.7°F3.2°C 89% 7.5 mph E12.1 kmh E 8.4 mph13.5 kmh 29.32 in992.9 mb 0.00 in0.0 mm 0.00 in0.0 mm 0.00 in0.0 mm
01:20 AM 40.6°F4.8°C 37.4°F3.0°C 88% 6.1 mph NW9.8 kmh NW 10.8 mph17.4 kmh 29.32 in992.9 mb 0.00 in0.0 mm 0.00 in0.0 mm 0.00 in0.0 mm
01:30 AM 40.5°F4.7°C 37.2°F2.9°C 88% 7.1 mph ESE11.4 kmh ESE 10.1 mph16.3 kmh 29.31 in992.6 mb 0.00 in0.0 mm 0.00 in0.0 mm 0.00 in0.0 mm
01:40 AM 40.6°F4.8°C 37.4°F3.0°C 88% 6.4 mph N10.3 kmh N 10.1 mph16.3 kmh 29.30 in992.2 mb 0.00 in0.0 mm 0.00 in0.0 mm 0.00 in0.0 mm
01:50 AM 40.5°F4.7°C 37.2°F2.9°C 88% 5.7 mph NW9.2 kmh NW 8.4 mph13.5 kmh 29.31 in992.6 mb 0.00 in0.0 mm 0.00 in0.0 mm 0.00 in0.0 mm
02:00 AM 40.5°F4.7°C 37.5°F3.1°C 89% 6.6 mph SW10.6 kmh SW 8.4 mph13.5 kmh 29.30 in992.2 mb 0.00 in0.0 mm 0.00 in0.0 mm 0.00 in0.0 mm
02:10 AM 40.3°F4.6°C 37.3°F2.9°C 89% 8.4 mph SSE13.5 kmh SSE 11.8 mph19.0 kmh 29.29 in991.9 mb 0.00 in0.0 mm 0.00 in0.0 mm 0.00 in0.0 mm
02:20 AM 40.3°F4.6°C 37.3°F2.9°C 89% 6.5 mph ESE10.5 kmh ESE 9.1 mph14.6 kmh 29.29 in991.9 mb 0.00 in0.0 mm 0.00 in0.0 mm 0.00 in0.0 mm
02:30 AM 40.5°F4.7°C 37.5°F3.1°C 89% 7.4 mph WSW11.9 kmh WSW 10.8 mph17.4 kmh 29.28 in991.5 mb 0.00 in0.0 mm 0.00 in0.0 mm 0.00 in0.0 mm
02:40 AM 40.5°F4.7°C 37.2°F2.9°C 88% 6.0 mph ENE9.7 kmh ENE 7.6 mph12.2 kmh 29.28 in991.5 mb 0.00 in0.0 mm 0.00 in0.0 mm 0.00 in0.0 mm
02:50 AM 40.5°F4.7°C 37.2°F2.9°C 88% 6.2 mph SE10.0 kmh SE 9.1 mph14.6 kmh 29.27 in991.2 mb 0.00 in0.0 mm 0.00 in0.0 mm 0.00 in0.0 mm
03:00 AM 40.5°F4.7°C 37.2°F2.9°C 88% 6.7 mph NW10.8 kmh NW 12.5 mph20.1 kmh 29.26 in990.9 mb 0.00 in0.0 mm 0.00 in0.0 mm 0.00 in0.0 mm
03:10 AM 40.5°F4.7°C 37.2°F2.9°C 88% 5.3 mph SSW8.5 kmh SSW 9.1 mph14.6 kmh 29.25 in990.5 mb 0.00 in0.0 mm 0.00 in0.0 mm 0.00 in0.0 mm
03:20 AM 40.5°F4.7°C 37.2°F2.9°C 88% 7.3 mph NNE11.7 kmh NNE 12.5 mph20.1 kmh 29.25 in990.5 mb 0.00 in0.0 mm 0.00 in0.0 mm 0.00 in0.0 mm
03:30 AM 40.3°F4.6°C 37.0°F2.8°C 88% 6.3 mph SW10.1 kmh SW 9.1 mph14.6 kmh 29.25 in990.5 mb 0.00 in0.0 mm 0.00 in0.0 mm 0.00 in0.0 mm
03:40 AM 40.3°F4.6°C 37.0°F2.8°C 88% 6.6 mph S10.6 kmh S 10.1 mph16.3 kmh 29.25 in990.5 mb 0.00 in0.0 mm 0.00 in0.0 mm 0.00 in0.0 mm
03:50 AM 40.3°F4.6°C 37.0°F2.8°C 88% 6.9 mph NW11.1 kmh NW 10.1 mph16.3 kmh 29.24 in990.2 mb 0.00 in0.0 mm 0.00 in0.0 mm 0.00 in0.0 mm
04:00 AM 40.3°F4.6°C 37.0°F2.8°C 88% 6.5 mph WSW10.5 kmh WSW 10.8 mph17.4 kmh 29.25 in990.5 mb 0.00 in0.0 mm 0.00 in0.0 mm 0.00 in0.0 mm
04:10 AM 40.3°F4.6°C 37.0°F2.8°C 88% 6.1 mph SE9.8 kmh SE 6.6 mph10.6 kmh 29.24 in990.2 mb 0.00 in0.0 mm 0.00 in0.0 mm 0.00 in0.0 mm
04:20 AM 40.3°F4.6°C 37.0°F2.8°C 88% 7.6 mph NNW12.2 kmh NNW 10.8 mph17.4 kmh 29.24 in990.2 mb 0.00 in0.0 mm 0.00 in0.0 mm 0.00 in0.0 mm
04:30 AM 40.3°F4.6°C 37.0°F2.8°C 88% 5.2 mph SW8.4 kmh SW 12.5 mph20.1 kmh 29.24 in990.2 mb 0.00 in0.0 mm 0.00 in0.0 mm 0.00 in0.0 mm
04:40 AM 40.3°F4.6°C 37.3°F2.9°C 89% 7.2 mph NW11.6 kmh NW 12.5 mph20.1 kmh 29.24 in990.2 mb 0.00 in0.0 mm 0.00 in0.0 mm 0.00 in0.0 mm
04:50 AM 40.3°F4.6°C 37.3°F2.9°C 89% 5.8 mph SW9.3 kmh SW 7.6 mph12.2 kmh 29.23 in989.8 mb 0.00 in0.0 mm 0.00 in0.0 mm 0.00 in0.0 mm
05:00 AM 40.1°F4.5°C 37.1°F2.8°C 89% 6.5 mph S10.5 kmh S 8.4 mph13.5 kmh 29.23 in989.8 mb 0.00 in0.0 mm 0.00 in0.0 mm 0.00 in0.0 mm
05:10 AM 40.1°F4.5°C 37.1°F2.8°C 89% 6.3 mph WSW10.1 kmh WSW 8.4 mph13.5 kmh 29.23 in989.8 mb 0.00 in0.0 mm 0.00 in0.0 mm 0.00 in0.0 mm
05:20 AM 40.1°F4.5°C 37.1°F2.8°C 89% 5.5 mph S8.9 kmh S 7.6 mph12.2 kmh 29.23 in989.8 mb 0.00 in0.0 mm 0.00 in0.0 mm 0.00 in0.0 mm
05:30 AM 40.1°F4.5°C 37.1°F2.8°C 89% 5.6 mph SSW9.0 kmh SSW 8.4 mph13.5 kmh 29.22 in989.5 mb 0.00 in0.0 mm 0.00 in0.0 mm 0.00 in0.0 mm
05:40 AM 40.1°F4.5°C 37.1°F2.8°C 89% 6.2 mph S10.0 kmh S 9.1 mph14.6 kmh 29.22 in989.5 mb 0.00 in0.0 mm 0.00 in0.0 mm 0.00 in0.0 mm
05:50 AM 40.1°F4.5°C 37.4°F3.0°C 90% 6.5 mph NE10.5 kmh NE 16.0 mph25.7 kmh 29.21 in989.2 mb 0.00 in0.0 mm 0.00 in0.0 mm 0.00 in0.0 mm
06:00 AM 39.9°F4.4°C 37.2°F2.9°C 90% 6.3 mph NNW10.1 kmh NNW 6.6 mph10.6 kmh 29.21 in989.2 mb 0.00 in0.0 mm 0.00 in0.0 mm 0.00 in0.0 mm
06:10 AM 40.1°F4.5°C 37.1°F2.8°C 89% 6.6 mph NNE10.6 kmh NNE 11.8 mph19.0 kmh 29.21 in989.2 mb 0.00 in0.0 mm 0.00 in0.0 mm 0.00 in0.0 mm
06:20 AM 39.9°F4.4°C 37.2°F2.9°C 90% 6.8 mph NNE10.9 kmh NNE 9.1 mph14.6 kmh 29.21 in989.2 mb 0.00 in0.0 mm 0.00 in0.0 mm 0.00 in0.0 mm
06:30 AM 39.9°F4.4°C 37.2°F2.9°C 90% 6.2 mph S10.0 kmh S 10.1 mph16.3 kmh 29.21 in989.2 mb 0.00 in0.0 mm 0.00 in0.0 mm 0.00 in0.0 mm
06:40 AM 39.7°F4.3°C 37.3°F2.9°C 91% 5.8 mph N9.3 kmh N 8.4 mph13.5 kmh 29.21 in989.2 mb 0.00 in0.0 mm 0.00 in0.0 mm 0.00 in0.0 mm
06:50 AM 39.9°F4.4°C 37.5°F3.1°C 91% 6.1 mph SW9.8 kmh SW 12.5 mph20.1 kmh 29.21 in989.2 mb 0.00 in0.0 mm 0.00 in0.0 mm 0.00 in0.0 mm
07:00 AM 39.9°F4.4°C 37.5°F3.1°C 91% 6.8 mph WSW10.9 kmh WSW 12.5 mph20.1 kmh 29.22 in989.5 mb 0.00 in0.0 mm 0.00 in0.0 mm 0.00 in0.0 mm
07:10 AM 40.1°F4.5°C 37.4°F3.0°C 90% 9.0 mph SE14.5 kmh SE 12.5 mph20.1 kmh 29.22 in989.5 mb 0.00 in0.0 mm 0.00 in0.0 mm 0.00 in0.0 mm
07:20 AM 40.3°F4.6°C 37.6°F3.1°C 90% 5.2 mph WNW8.4 kmh WNW 8.4 mph13.5 kmh 29.22 in989.5 mb 0.00 in0.0 mm 0.00 in0.0 mm 0.00 in0.0 mm
07:30 AM 40.3°F4.6°C 37.3°F2.9°C 89% 6.1 mph N9.8 kmh N 8.4 mph13.5 kmh 29.21 in989.2 mb 0.00 in0.0 mm 0.00 in0.0 mm 0.00 in0.0 mm
07:40 AM 40.3°F4.6°C 37.3°F2.9°C 89% 5.6 mph WNW9.0 kmh WNW 7.6 mph12.2 kmh 29.22 in989.5 mb 0.00 in0.0 mm 0.00 in0.0 mm 0.00 in0.0 mm
07:50 AM 40.5°F4.7°C 37.5°F3.1°C 89% 6.1 mph SSW9.8 kmh SSW 10.8 mph17.4 kmh 29.22 in989.5 mb 0.00 in0.0 mm 0.00 in0.0 mm 0.00 in0.0 mm
08:00 AM 40.5°F4.7°C 37.5°F3.1°C 89% 7.4 mph W11.9 kmh W 10.1 mph16.3 kmh 29.22 in989.5 mb 0.00 in0.0 mm 0.00 in0.0 mm 0.00 in0.0 mm
08:10 AM 40.6°F4.8°C 37.7°F3.2°C 89% 6.4 mph SW10.3 kmh SW 9.1 mph14.6 kmh 29.23 in989.8 mb 0.00 in0.0 mm 0.00 in0.0 mm 0.00 in0.0 mm
08:20 AM 40.6°F4.8°C 37.7°F3.2°C 89% 4.5 mph N7.2 kmh N 6.6 mph10.6 kmh 29.22 in989.5 mb 0.00 in0.0 mm 0.00 in0.0 mm 0.00 in0.0 mm
08:30 AM 40.6°F4.8°C 37.7°F3.2°C 89% 6.1 mph W9.8 kmh W 9.1 mph14.6 kmh 29.23 in989.8 mb 0.00 in0.0 mm 0.00 in0.0 mm 0.00 in0.0 mm
08:40 AM 40.8°F4.9°C 37.8°F3.2°C 89% 5.8 mph SSW9.3 kmh SSW 10.1 mph16.3 kmh 29.22 in989.5 mb 0.00 in0.0 mm 0.00 in0.0 mm 0.00 in0.0 mm
08:50 AM 40.8°F4.9°C 37.8°F3.2°C 89% 6.3 mph E10.1 kmh E 9.1 mph14.6 kmh 29.23 in989.8 mb 0.00 in0.0 mm 0.00 in0.0 mm 0.00 in0.0 mm
09:00 AM 40.6°F4.8°C 37.7°F3.2°C 89% 5.8 mph W9.3 kmh W 7.6 mph12.2 kmh 29.22 in989.5 mb 0.00 in0.0 mm 0.00 in0.0 mm 0.00 in0.0 mm
09:10 AM 40.8°F4.9°C 37.8°F3.2°C 89% 5.3 mph WSW8.5 kmh WSW 6.6 mph10.6 kmh 29.23 in989.8 mb 0.00 in0.0 mm 0.00 in0.0 mm 0.00 in0.0 mm
09:20 AM 41.0°F5.0°C 37.7°F3.2°C 88% 5.7 mph WSW9.2 kmh WSW 10.1 mph16.3 kmh 29.22 in989.5 mb 0.00 in0.0 mm 0.00 in0.0 mm 0.00 in0.0 mm
09:30 AM 41.0°F5.0°C 37.7°F3.2°C 88% 6.6 mph N10.6 kmh N 13.3 mph21.4 kmh 29.23 in989.8 mb 0.00 in0.0 mm 0.00 in0.0 mm 0.00 in0.0 mm
09:40 AM 41.2°F5.1°C 37.9°F3.3°C 88% 4.8 mph SE7.7 kmh SE 6.6 mph10.6 kmh 29.22 in989.5 mb 0.00 in0.0 mm 0.00 in0.0 mm 0.00 in0.0 mm
09:50 AM 41.4°F5.2°C 38.1°F3.4°C 88% 4.5 mph W7.2 kmh W 7.6 mph12.2 kmh 29.23 in989.8 mb 0.00 in0.0 mm 0.00 in0.0 mm 0.00 in0.0 mm
10:00 AM 41.4°F5.2°C 38.1°F3.4°C 88% 5.0 mph SW8.0 kmh SW 10.1 mph16.3 kmh 29.23 in989.8 mb 0.00 in0.0 mm 0.00 in0.0 mm 0.00 in0.0 mm
10:10 AM 41.5°F5.3°C 38.3°F3.5°C 88% 4.4 mph S7.1 kmh S 4.9 mph7.9 kmh 29.23 in989.8 mb 0.00 in0.0 mm 0.00 in0.0 mm 0.00 in0.0 mm
10:20 AM 41.5°F5.3°C 38.5°F3.6°C 89% 5.1 mph SE8.2 kmh SE 7.6 mph12.2 kmh 29.23 in989.8 mb 0.00 in0.0 mm 0.00 in0.0 mm 0.00 in0.0 mm
10:30 AM 42.4°F5.8°C 39.4°F4.1°C 89% 4.2 mph WSW6.8 kmh WSW 7.6 mph12.2 kmh 29.23 in989.8 mb 0.00 in0.0 mm 0.00 in0.0 mm 0.00 in0.0 mm
10:40 AM 42.6°F5.9°C 39.0°F3.9°C 87% 4.2 mph NNW6.8 kmh NNW 7.6 mph12.2 kmh 29.23 in989.8 mb 0.00 in0.0 mm 0.00 in0.0 mm 0.00 in0.0 mm
10:50 AM 42.3°F5.7°C 39.0°F3.9°C 88% 4.8 mph W7.7 kmh W 9.1 mph14.6 kmh 29.23 in989.8 mb 0.00 in0.0 mm 0.00 in0.0 mm 0.00 in0.0 mm
11:00 AM 41.9°F5.5°C 38.9°F3.8°C 89% 3.9 mph W6.3 kmh W 5.9 mph9.5 kmh 29.23 in989.8 mb 0.00 in0.0 mm 0.00 in0.0 mm 0.00 in0.0 mm
11:10 AM 41.5°F5.3°C 39.1°F3.9°C 91% 4.9 mph S7.9 kmh S 8.4 mph13.5 kmh 29.23 in989.8 mb 0.00 in0.0 mm 0.00 in0.0 mm 0.00 in0.0 mm
11:20 AM 41.5°F5.3°C 39.4°F4.1°C 92% 4.0 mph ESE6.4 kmh ESE 6.6 mph10.6 kmh 29.23 in989.8 mb 0.00 in0.0 mm 0.00 in0.0 mm 0.00 in0.0 mm
11:30 AM 41.4°F5.2°C 39.2°F4.0°C 92% 4.1 mph NE6.6 kmh NE 7.6 mph12.2 kmh 29.22 in989.5 mb 0.01 in0.3 mm 0.06 in1.5 mm 0.01 in0.3 mm
11:40 AM 41.2°F5.1°C 39.0°F3.9°C 92% 3.8 mph WNW6.1 kmh WNW 4.2 mph6.8 kmh 29.23 in989.8 mb 0.01 in0.3 mm 0.00 in0.0 mm 0.01 in0.3 mm
11:50 AM 41.0°F5.0°C 39.1°F3.9°C 93% 3.7 mph N6.0 kmh N 4.9 mph7.9 kmh 29.24 in990.2 mb 0.01 in0.3 mm 0.00 in0.0 mm 0.01 in0.3 mm
12:00 PM 40.8°F4.9°C 39.0°F3.9°C 93% 3.8 mph W6.1 kmh W 4.9 mph7.9 kmh 29.24 in990.2 mb 0.01 in0.3 mm 0.00 in0.0 mm 0.01 in0.3 mm
12:10 PM 40.8°F4.9°C 39.2°F4.0°C 94% 4.0 mph W6.4 kmh W 5.9 mph9.5 kmh 29.24 in990.2 mb 0.01 in0.3 mm 0.00 in0.0 mm 0.01 in0.3 mm
12:20 PM 41.0°F5.0°C 39.4°F4.1°C 94% 3.3 mph WSW5.3 kmh WSW 5.9 mph9.5 kmh 29.24 in990.2 mb 0.02 in0.5 mm 0.06 in1.5 mm 0.02 in0.5 mm
12:30 PM 41.0°F5.0°C 39.7°F4.3°C 95% 3.7 mph NNW6.0 kmh NNW 4.9 mph7.9 kmh 29.24 in990.2 mb 0.01 in0.3 mm 0.00 in0.0 mm 0.02 in0.5 mm
12:40 PM 41.2°F5.1°C 39.9°F4.4°C 95% 3.8 mph SW6.1 kmh SW 4.9 mph7.9 kmh 29.24 in990.2 mb 0.01 in0.3 mm 0.00 in0.0 mm 0.02 in0.5 mm
12:50 PM 41.4°F5.2°C 40.0°F4.4°C 95% 3.1 mph S5.0 kmh S 4.2 mph6.8 kmh 29.24 in990.2 mb 0.01 in0.3 mm 0.00 in0.0 mm 0.02 in0.5 mm
01:00 PM 41.5°F5.3°C 40.2°F4.6°C 95% 3.4 mph S5.5 kmh S 5.9 mph9.5 kmh 29.24 in990.2 mb 0.01 in0.3 mm 0.00 in0.0 mm 0.02 in0.5 mm
01:10 PM 41.7°F5.4°C 40.4°F4.7°C 95% 3.7 mph N6.0 kmh N 4.2 mph6.8 kmh 29.24 in990.2 mb 0.01 in0.3 mm 0.00 in0.0 mm 0.02 in0.5 mm
01:20 PM 41.7°F5.4°C 40.4°F4.7°C 95% 3.3 mph NW5.3 kmh NW 4.9 mph7.9 kmh 29.25 in990.5 mb 0.00 in0.0 mm 0.00 in0.0 mm 0.02 in0.5 mm
01:30 PM 41.5°F5.3°C 40.2°F4.6°C 95% 4.1 mph NW6.6 kmh NW 5.9 mph9.5 kmh 29.25 in990.5 mb 0.00 in0.0 mm 0.00 in0.0 mm 0.02 in0.5 mm
01:40 PM 41.5°F5.3°C 40.2°F4.6°C 95% 3.8 mph NNW6.1 kmh NNW 9.1 mph14.6 kmh 29.25 in990.5 mb 0.01 in0.3 mm 0.06 in1.5 mm 0.04 in1.0 mm
01:50 PM 42.1°F5.6°C 40.8°F4.9°C 95% 3.4 mph SSW5.5 kmh SSW 4.2 mph6.8 kmh 29.25 in990.5 mb 0.01 in0.3 mm 0.00 in0.0 mm 0.04 in1.0 mm
02:00 PM 42.4°F5.8°C 41.1°F5.1°C 95% 3.7 mph NNE6.0 kmh NNE 7.6 mph12.2 kmh 29.25 in990.5 mb 0.01 in0.3 mm 0.00 in0.0 mm 0.04 in1.0 mm
02:10 PM 42.3°F5.7°C 40.9°F4.9°C 95% 4.3 mph N6.9 kmh N 7.6 mph12.2 kmh 29.24 in990.2 mb 0.01 in0.3 mm 0.00 in0.0 mm 0.04 in1.0 mm
02:20 PM 42.3°F5.7°C 40.9°F4.9°C 95% 4.0 mph SSW6.4 kmh SSW 5.9 mph9.5 kmh 29.25 in990.5 mb 0.01 in0.3 mm 0.00 in0.0 mm 0.04 in1.0 mm
02:30 PM 42.3°F5.7°C 40.7°F4.8°C 94% 3.7 mph NNW6.0 kmh NNW 5.9 mph9.5 kmh 29.25 in990.5 mb 0.01 in0.3 mm 0.00 in0.0 mm 0.04 in1.0 mm
02:40 PM 41.9°F5.5°C 40.3°F4.6°C 94% 4.4 mph WNW7.1 kmh WNW 4.9 mph7.9 kmh 29.25 in990.5 mb 0.00 in0.0 mm 0.00 in0.0 mm 0.04 in1.0 mm
02:50 PM 41.9°F5.5°C 40.6°F4.8°C 95% 3.2 mph NNE5.1 kmh NNE 6.6 mph10.6 kmh 29.25 in990.5 mb 0.00 in0.0 mm 0.00 in0.0 mm 0.04 in1.0 mm
03:00 PM 41.9°F5.5°C 40.6°F4.8°C 95% 3.8 mph WNW6.1 kmh WNW 6.6 mph10.6 kmh 29.26 in990.9 mb 0.00 in0.0 mm 0.00 in0.0 mm 0.04 in1.0 mm
03:10 PM 41.7°F5.4°C 40.4°F4.7°C 95% 2.5 mph NW4.0 kmh NW 4.9 mph7.9 kmh 29.26 in990.9 mb 0.00 in0.0 mm 0.00 in0.0 mm 0.04 in1.0 mm
03:20 PM 41.5°F5.3°C 40.2°F4.6°C 95% 3.2 mph NNW5.1 kmh NNW 4.2 mph6.8 kmh 29.26 in990.9 mb 0.00 in0.0 mm 0.00 in0.0 mm 0.04 in1.0 mm
03:30 PM 41.5°F5.3°C 40.2°F4.6°C 95% 2.9 mph NNW4.7 kmh NNW 5.9 mph9.5 kmh 29.25 in990.5 mb 0.00 in0.0 mm 0.00 in0.0 mm 0.04 in1.0 mm
03:40 PM 41.5°F5.3°C 40.2°F4.6°C 95% 3.5 mph NNW5.6 kmh NNW 5.9 mph9.5 kmh 29.26 in990.9 mb 0.00 in0.0 mm 0.00 in0.0 mm 0.04 in1.0 mm
03:50 PM 41.5°F5.3°C 40.2°F4.6°C 95% 3.2 mph NNE5.1 kmh NNE 4.9 mph7.9 kmh 29.26 in990.9 mb 0.00 in0.0 mm 0.00 in0.0 mm 0.04 in1.0 mm
04:00 PM 41.4°F5.2°C 40.0°F4.4°C 95% 3.4 mph N5.5 kmh N 4.9 mph7.9 kmh 29.25 in990.5 mb 0.00 in0.0 mm 0.00 in0.0 mm 0.04 in1.0 mm
04:10 PM 41.4°F5.2°C 40.0°F4.4°C 95% 3.2 mph N5.1 kmh N 4.9 mph7.9 kmh 29.26 in990.9 mb 0.00 in0.0 mm 0.00 in0.0 mm 0.04 in1.0 mm
04:20 PM 41.2°F5.1°C 39.9°F4.4°C 95% 3.7 mph N6.0 kmh N 4.9 mph7.9 kmh 29.26 in990.9 mb 0.00 in0.0 mm 0.00 in0.0 mm 0.04 in1.0 mm
04:30 PM 41.0°F5.0°C 39.9°F4.4°C 96% 2.6 mph N4.2 kmh N 3.4 mph5.5 kmh 29.26 in990.9 mb 0.00 in0.0 mm 0.00 in0.0 mm 0.04 in1.0 mm
04:40 PM 40.8°F4.9°C 39.8°F4.3°C 96% 2.9 mph NNE4.7 kmh NNE 6.6 mph10.6 kmh 29.27 in991.2 mb 0.00 in0.0 mm 0.00 in0.0 mm 0.04 in1.0 mm
04:50 PM 40.8°F4.9°C 39.8°F4.3°C 96% 2.8 mph N4.5 kmh N 4.2 mph6.8 kmh 29.27 in991.2 mb 0.00 in0.0 mm 0.00 in0.0 mm 0.04 in1.0 mm
05:00 PM 40.8°F4.9°C 39.8°F4.3°C 96% 3.7 mph NNE6.0 kmh NNE 6.6 mph10.6 kmh 29.27 in991.2 mb 0.00 in0.0 mm 0.00 in0.0 mm 0.04 in1.0 mm
05:10 PM 40.8°F4.9°C 39.8°F4.3°C 96% 4.8 mph ENE7.7 kmh ENE 4.2 mph6.8 kmh 29.27 in991.2 mb 0.00 in0.0 mm 0.00 in0.0 mm 0.04 in1.0 mm
05:20 PM 41.0°F5.0°C 40.2°F4.6°C 97% 3.2 mph SW5.1 kmh SW 4.9 mph7.9 kmh 29.27 in991.2 mb 0.00 in0.0 mm 0.00 in0.0 mm 0.04 in1.0 mm
05:30 PM 41.0°F5.0°C 40.2°F4.6°C 97% 3.4 mph WNW5.5 kmh WNW 4.2 mph6.8 kmh 29.27 in991.2 mb 0.00 in0.0 mm 0.00 in0.0 mm 0.04 in1.0 mm
05:40 PM 41.0°F5.0°C 40.2°F4.6°C 97% 3.2 mph N5.1 kmh N 4.2 mph6.8 kmh 29.27 in991.2 mb 0.00 in0.0 mm 0.00 in0.0 mm 0.04 in1.0 mm
05:50 PM 40.8°F4.9°C 40.0°F4.4°C 97% 2.7 mph NW4.3 kmh NW 4.2 mph6.8 kmh 29.27 in991.2 mb 0.00 in0.0 mm 0.00 in0.0 mm 0.04 in1.0 mm
06:00 PM 40.8°F4.9°C 40.0°F4.4°C 97% 3.1 mph NW5.0 kmh NW 4.2 mph6.8 kmh 29.27 in991.2 mb 0.00 in0.0 mm 0.00 in0.0 mm 0.04 in1.0 mm
06:10 PM 40.8°F4.9°C 40.0°F4.4°C 97% 3.2 mph NW5.1 kmh NW 6.6 mph10.6 kmh 29.27 in991.2 mb 0.00 in0.0 mm 0.00 in0.0 mm 0.04 in1.0 mm
06:20 PM 40.6°F4.8°C 39.9°F4.4°C 97% 2.2 mph WNW3.5 kmh WNW 3.4 mph5.5 kmh 29.28 in991.5 mb 0.00 in0.0 mm 0.00 in0.0 mm 0.04 in1.0 mm
06:30 PM 40.5°F4.7°C 39.7°F4.3°C 97% 2.1 mph N3.4 kmh N 3.4 mph5.5 kmh 29.28 in991.5 mb 0.00 in0.0 mm 0.00 in0.0 mm 0.04 in1.0 mm
06:40 PM 40.3°F4.6°C 39.5°F4.2°C 97% 1.8 mph N2.9 kmh N 2.5 mph4.0 kmh 29.29 in991.9 mb 0.00 in0.0 mm 0.00 in0.0 mm 0.04 in1.0 mm
06:50 PM 40.1°F4.5°C 39.3°F4.1°C 97% 1.4 mph SE2.3 kmh SE 2.5 mph4.0 kmh 29.29 in991.9 mb 0.00 in0.0 mm 0.00 in0.0 mm 0.04 in1.0 mm
07:00 PM 40.1°F4.5°C 39.3°F4.1°C 97% 1.9 mph NNE3.1 kmh NNE 4.2 mph6.8 kmh 29.29 in991.9 mb 0.00 in0.0 mm 0.00 in0.0 mm 0.04 in1.0 mm
07:10 PM 40.1°F4.5°C 39.6°F4.2°C 98% 1.3 mph WNW2.1 kmh WNW 3.4 mph5.5 kmh 29.29 in991.9 mb 0.00 in0.0 mm 0.00 in0.0 mm 0.04 in1.0 mm
07:20 PM 40.1°F4.5°C 39.6°F4.2°C 98% 2.8 mph NNE4.5 kmh NNE 4.2 mph6.8 kmh 29.29 in991.9 mb 0.00 in0.0 mm 0.00 in0.0 mm 0.04 in1.0 mm
07:30 PM 40.1°F4.5°C 39.6°F4.2°C 98% 2.9 mph NNW4.7 kmh NNW 4.2 mph6.8 kmh 29.30 in992.2 mb 0.00 in0.0 mm 0.00 in0.0 mm 0.04 in1.0 mm
07:40 PM 40.1°F4.5°C 39.6°F4.2°C 98% 3.2 mph SSW5.1 kmh SSW 3.4 mph5.5 kmh 29.30 in992.2 mb 0.00 in0.0 mm 0.00 in0.0 mm 0.04 in1.0 mm
07:50 PM 40.3°F4.6°C 39.8°F4.3°C 98% 2.6 mph NW4.2 kmh NW 3.4 mph5.5 kmh 29.31 in992.6 mb 0.00 in0.0 mm 0.00 in0.0 mm 0.04 in1.0 mm
08:00 PM 40.3°F4.6°C 39.8°F4.3°C 98% 2.8 mph ESE4.5 kmh ESE 4.2 mph6.8 kmh 29.31 in992.6 mb 0.00 in0.0 mm 0.00 in0.0 mm 0.04 in1.0 mm
08:10 PM 40.3°F4.6°C 39.8°F4.3°C 98% 3.2 mph WNW5.1 kmh WNW 4.9 mph7.9 kmh 29.31 in992.6 mb 0.00 in0.0 mm 0.00 in0.0 mm 0.04 in1.0 mm
08:20 PM 40.1°F4.5°C 39.8°F4.3°C 99% 2.4 mph NNW3.9 kmh NNW 4.9 mph7.9 kmh 29.31 in992.6 mb 0.00 in0.0 mm 0.00 in0.0 mm 0.04 in1.0 mm
08:30 PM 40.1°F4.5°C 39.8°F4.3°C 99% 2.6 mph NW4.2 kmh NW 3.4 mph5.5 kmh 29.31 in992.6 mb 0.00 in0.0 mm 0.00 in0.0 mm 0.04 in1.0 mm
08:40 PM 40.1°F4.5°C 39.8°F4.3°C 99% 2.8 mph N4.5 kmh N 4.2 mph6.8 kmh 29.31 in992.6 mb 0.00 in0.0 mm 0.00 in0.0 mm 0.04 in1.0 mm
08:50 PM 40.3°F4.6°C 40.0°F4.4°C 99% 3.0 mph N4.8 kmh N 4.2 mph6.8 kmh 29.32 in992.9 mb 0.00 in0.0 mm 0.00 in0.0 mm 0.04 in1.0 mm
09:00 PM 40.3°F4.6°C 40.0°F4.4°C 99% 2.4 mph NE3.9 kmh NE 3.4 mph5.5 kmh 29.32 in992.9 mb 0.00 in0.0 mm 0.00 in0.0 mm 0.04 in1.0 mm
09:10 PM 40.3°F4.6°C 40.0°F4.4°C 99% 3.1 mph NE5.0 kmh NE 5.9 mph9.5 kmh 29.31 in992.6 mb 0.00 in0.0 mm 0.00 in0.0 mm 0.04 in1.0 mm
09:20 PM 40.3°F4.6°C 40.0°F4.4°C 99% 3.0 mph N4.8 kmh N 4.2 mph6.8 kmh 29.32 in992.9 mb 0.00 in0.0 mm 0.00 in0.0 mm 0.04 in1.0 mm
09:30 PM 40.3°F4.6°C 40.0°F4.4°C 99% 3.0 mph N4.8 kmh N 4.9 mph7.9 kmh 29.32 in992.9 mb 0.00 in0.0 mm 0.00 in0.0 mm 0.04 in1.0 mm
09:40 PM 40.5°F4.7°C 40.5°F4.7°C 100% 3.2 mph NNW5.1 kmh NNW 4.9 mph7.9 kmh 29.32 in992.9 mb 0.00 in0.0 mm 0.00 in0.0 mm 0.04 in1.0 mm
09:50 PM 40.6°F4.8°C 40.6°F4.8°C 100% 2.3 mph NNE3.7 kmh NNE 4.9 mph7.9 kmh 29.32 in992.9 mb 0.00 in0.0 mm 0.00 in0.0 mm 0.04 in1.0 mm
10:00 PM 40.6°F4.8°C 40.6°F4.8°C 100% 2.6 mph NE4.2 kmh NE 4.9 mph7.9 kmh 29.33 in993.2 mb 0.00 in0.0 mm 0.00 in0.0 mm 0.04 in1.0 mm
10:10 PM 40.6°F4.8°C 40.6°F4.8°C 100% 3.0 mph W4.8 kmh W 4.9 mph7.9 kmh 29.32 in992.9 mb 0.00 in0.0 mm 0.00 in0.0 mm 0.04 in1.0 mm
10:20 PM 40.8°F4.9°C 40.8°F4.9°C 100% 3.1 mph E5.0 kmh E 4.2 mph6.8 kmh 29.32 in992.9 mb 0.00 in0.0 mm 0.00 in0.0 mm 0.04 in1.0 mm
10:30 PM 40.8°F4.9°C 40.8°F4.9°C 100% 3.0 mph WSW4.8 kmh WSW 4.2 mph6.8 kmh 29.32 in992.9 mb 0.00 in0.0 mm 0.00 in0.0 mm 0.04 in1.0 mm
10:40 PM 40.8°F4.9°C 40.8°F4.9°C 100% 3.1 mph NNW5.0 kmh NNW 4.2 mph6.8 kmh 29.32 in992.9 mb 0.00 in0.0 mm 0.00 in0.0 mm 0.04 in1.0 mm
10:50 PM 40.8°F4.9°C 40.8°F4.9°C 100% 3.4 mph N5.5 kmh N 4.2 mph6.8 kmh 29.32 in992.9 mb 0.00 in0.0 mm 0.00 in0.0 mm 0.04 in1.0 mm
11:00 PM 40.8°F4.9°C 40.8°F4.9°C 100% 3.4 mph E5.5 kmh E 4.2 mph6.8 kmh 29.33 in993.2 mb 0.00 in0.0 mm 0.00 in0.0 mm 0.04 in1.0 mm
11:10 PM 40.8°F4.9°C 40.8°F4.9°C 100% 3.1 mph W5.0 kmh W 4.2 mph6.8 kmh 29.33 in993.2 mb 0.00 in0.0 mm 0.00 in0.0 mm 0.04 in1.0 mm
11:20 PM 40.8°F4.9°C 40.8°F4.9°C 100% 3.5 mph NNW5.6 kmh NNW 4.9 mph7.9 kmh 29.33 in993.2 mb 0.00 in0.0 mm 0.00 in0.0 mm 0.04 in1.0 mm
11:30 PM 40.5°F4.7°C 40.5°F4.7°C 100% 2.8 mph NNE4.5 kmh NNE 4.9 mph7.9 kmh 29.33 in993.2 mb 0.00 in0.0 mm 0.00 in0.0 mm 0.04 in1.0 mm
11:40 PM 40.5°F4.7°C 40.5°F4.7°C 100% 3.9 mph NW6.3 kmh NW 4.9 mph7.9 kmh 29.33 in993.2 mb 0.00 in0.0 mm 0.00 in0.0 mm 0.04 in1.0 mm
11:50 PM 40.5°F4.7°C 40.5°F4.7°C 100% 4.3 mph NNW6.9 kmh NNW 4.9 mph7.9 kmh 29.34 in993.6 mb 0.00 in0.0 mm 0.00 in0.0 mm 0.04 in1.0 mm